createdAt,value
2023-05-23T00:00:44.909Z,33.90
2023-05-23T00:03:14.211Z,33.90
2023-05-23T00:05:43.435Z,33.90
2023-05-23T00:08:12.725Z,33.90
2023-05-23T00:10:42.239Z,33.90
2023-05-23T13:14:35.451Z,35.10
2023-05-23T13:17:06.716Z,34.80
2023-05-23T13:19:36.388Z,34.70
2023-05-23T13:22:05.626Z,34.70
2023-05-23T13:24:34.826Z,34.80
2023-05-23T13:27:04.034Z,34.90
2023-05-23T13:29:33.432Z,34.90
2023-05-23T13:32:02.323Z,35.00
2023-05-23T13:34:31.739Z,35.00
2023-05-23T13:37:00.780Z,35.00
2023-05-23T13:39:29.912Z,35.10
2023-05-23T13:41:59.224Z,35.00
2023-05-23T13:44:28.622Z,35.00
2023-05-23T13:46:57.749Z,35.00
2023-05-23T13:49:27.322Z,35.00
2023-05-23T13:51:56.739Z,34.90
2023-05-23T13:54:26.123Z,34.50
2023-05-23T13:56:55.234Z,33.20
2023-05-23T13:59:24.332Z,31.00
2023-05-23T14:01:53.587Z,29.60
2023-05-23T14:04:22.709Z,28.70
2023-05-23T14:06:51.718Z,28.10
2023-05-23T14:09:23.039Z,27.80
2023-05-23T14:11:51.439Z,27.60
2023-05-23T14:14:21.457Z,27.40
2023-05-23T14:16:50.690Z,27.30
2023-05-23T14:19:20.226Z,27.50
2023-05-23T14:21:49.773Z,27.80
2023-05-23T14:24:18.960Z,28.20
2023-05-23T14:26:47.974Z,28.50
2023-05-23T14:29:17.147Z,28.90
2023-05-23T14:31:46.580Z,28.90
2023-05-23T14:34:15.858Z,29.00
2023-05-23T14:36:45.258Z,29.10
2023-05-23T14:39:14.554Z,29.20
2023-05-23T14:41:43.752Z,29.20
2023-05-23T14:44:13.029Z,29.30
2023-05-23T14:46:41.981Z,29.40
2023-05-23T14:49:11.262Z,29.40
2023-05-23T14:54:10.978Z,29.10
2023-05-23T14:56:40.270Z,29.10
2023-05-23T14:59:09.480Z,29.00
2023-05-23T15:01:40.136Z,29.00
2023-05-23T15:04:09.117Z,29.00
2023-05-23T15:06:39.300Z,29.00
2023-05-23T15:09:08.730Z,28.80
2023-05-23T15:11:40.830Z,28.80
2023-05-23T15:14:10.200Z,28.70
2023-05-23T15:16:39.677Z,28.60
2023-05-23T15:19:08.809Z,28.60
2023-05-23T15:21:38.453Z,28.60
2023-05-23T15:24:08.731Z,28.60
2023-05-23T15:26:38.011Z,28.50
2023-05-23T15:29:07.238Z,28.70
2023-05-23T15:31:38.100Z,29.20
2023-05-23T15:34:07.461Z,29.70
2023-05-23T15:36:36.695Z,30.00
2023-05-23T15:39:05.966Z,30.30
2023-05-23T15:41:35.055Z,30.40
2023-05-23T15:44:04.232Z,30.60
2023-05-23T15:46:33.634Z,30.70
2023-05-23T15:49:10.613Z,30.80
2023-05-23T15:51:33.385Z,30.90
2023-05-23T15:54:02.378Z,30.90
2023-05-23T15:56:31.794Z,30.90
2023-05-23T15:59:01.185Z,31.00
2023-05-23T16:01:30.494Z,31.00
2023-05-23T16:03:59.733Z,31.00
2023-05-23T16:06:28.978Z,31.10
2023-05-23T16:08:58.292Z,31.10
2023-05-23T16:11:27.383Z,31.10
2023-05-23T16:13:56.808Z,31.10
2023-05-23T16:16:26.156Z,31.10
2023-05-23T16:18:55.309Z,31.10
2023-05-23T16:21:24.789Z,31.10
2023-05-23T16:23:54.198Z,31.10
2023-05-23T16:26:23.295Z,31.00
2023-05-23T16:28:52.567Z,31.00
2023-05-23T16:31:22.226Z,31.00
2023-05-23T16:33:51.298Z,31.00
2023-05-23T16:36:39.646Z,31.00
2023-05-23T16:38:56.754Z,31.00
2023-05-23T16:41:26.060Z,31.00
2023-05-23T16:43:55.259Z,31.00
2023-05-23T16:46:24.715Z,30.90
2023-05-23T16:48:54.179Z,30.90
2023-05-23T16:51:23.467Z,30.90
2023-05-23T16:53:52.873Z,30.90
2023-05-23T16:56:22.065Z,30.90
2023-05-23T16:58:51.155Z,30.80
2023-05-23T17:01:20.585Z,30.80
2023-05-23T17:03:50.345Z,30.80
2023-05-23T17:06:19.567Z,30.80
2023-05-23T17:08:48.665Z,30.70
2023-05-23T17:11:18.074Z,30.80
2023-05-23T17:13:47.268Z,30.70
2023-05-23T17:16:17.418Z,30.80
2023-05-23T17:18:46.915Z,30.70
2023-05-23T17:21:20.121Z,30.70
2023-05-23T17:23:49.487Z,30.70
2023-05-23T17:26:19.695Z,30.70
2023-05-23T17:28:48.900Z,30.70
2023-05-23T17:31:18.272Z,30.70
2023-05-23T17:33:47.617Z,30.70
2023-05-23T17:36:17.126Z,30.70
2023-05-23T17:38:46.526Z,30.60
2023-05-23T17:41:15.818Z,30.60
2023-05-23T17:43:45.017Z,30.60
2023-05-23T17:46:14.370Z,30.60
2023-05-23T17:48:47.575Z,30.60
2023-05-23T17:51:16.706Z,30.50
2023-05-23T17:53:46.113Z,30.50
2023-05-23T17:56:15.102Z,30.50
2023-05-23T17:58:44.590Z,30.50
2023-05-23T18:01:14.121Z,30.50
2023-05-23T18:03:43.422Z,30.50
2023-05-23T18:06:12.819Z,30.50
2023-05-23T18:08:43.748Z,30.40
2023-05-23T18:11:12.953Z,30.50
2023-05-23T18:13:41.960Z,30.40
2023-05-23T18:16:11.166Z,30.40
2023-05-23T18:18:40.350Z,30.40
2023-05-23T18:21:09.642Z,30.40
2023-05-23T18:23:38.636Z,30.40
2023-05-23T18:26:08.255Z,30.30
2023-05-23T18:28:40.012Z,30.30
2023-05-23T18:31:09.301Z,30.30
2023-05-23T18:33:38.239Z,30.30
2023-05-23T18:36:07.291Z,30.30
2023-05-23T18:38:36.223Z,30.30
2023-05-23T18:41:05.902Z,30.20
2023-05-23T18:43:34.990Z,30.20
2023-05-23T18:46:03.995Z,30.20
2023-05-23T18:48:34.952Z,30.20
2023-05-23T18:51:03.307Z,30.10
2023-05-23T18:53:32.088Z,30.10
2023-05-23T18:56:01.267Z,30.10
2023-05-23T18:58:30.284Z,30.10
2023-05-23T19:00:59.165Z,30.10
2023-05-23T19:03:28.151Z,30.10
2023-05-23T19:05:57.570Z,30.00
2023-05-23T19:08:26.663Z,30.00
2023-05-23T19:10:55.548Z,30.00
2023-05-23T19:13:24.650Z,30.00
2023-05-23T19:15:53.687Z,30.00
2023-05-23T19:18:22.737Z,30.00
2023-05-23T19:20:52.061Z,29.90
2023-05-23T19:23:21.138Z,29.90
2023-05-23T19:25:50.026Z,29.90
2023-05-23T19:28:19.014Z,30.00
2023-05-23T19:30:48.118Z,30.00
2023-05-23T19:33:17.007Z,30.00
2023-05-23T19:35:46.000Z,29.90
2023-05-23T19:38:15.098Z,29.90
2023-05-23T19:40:44.154Z,30.00
2023-05-23T19:43:13.279Z,30.00
2023-05-23T19:45:42.601Z,30.00
2023-05-23T19:48:11.499Z,30.00
2023-05-23T19:50:40.671Z,30.10
2023-05-23T19:53:09.770Z,30.10
2023-05-23T19:55:38.876Z,30.10
2023-05-23T19:58:08.170Z,30.10
2023-05-23T20:00:37.071Z,30.20
2023-05-23T20:03:06.087Z,30.20
2023-05-23T20:05:35.056Z,30.20
2023-05-23T20:08:04.143Z,30.20
2023-05-23T20:10:33.132Z,30.20
2023-05-23T20:13:02.238Z,30.30
2023-05-23T20:15:39.618Z,30.30
2023-05-23T20:18:01.998Z,30.30
2023-05-23T20:20:31.054Z,30.20
2023-05-23T20:22:59.952Z,29.70
2023-05-23T20:25:28.846Z,28.80
2023-05-23T20:27:57.800Z,28.10
2023-05-23T20:30:27.033Z,27.50
2023-05-23T20:32:56.096Z,27.00
2023-05-23T20:35:25.221Z,26.70
2023-05-23T20:37:54.212Z,26.50
2023-05-23T20:40:23.100Z,26.30
2023-05-23T20:42:52.094Z,26.10
2023-05-23T20:45:21.522Z,26.00
2023-05-23T20:47:50.618Z,25.90
2023-05-23T20:50:19.787Z,25.80
2023-05-23T20:52:49.003Z,25.80
2023-05-23T20:55:17.989Z,25.90
2023-05-23T20:57:46.870Z,26.00
2023-05-23T21:00:15.775Z,26.10
2023-05-23T21:02:44.824Z,26.10
2023-05-23T21:05:13.956Z,26.20
2023-05-23T21:07:42.846Z,26.10
2023-05-23T21:10:12.050Z,26.10
2023-05-23T21:12:41.246Z,26.10
2023-05-23T21:15:10.144Z,26.00
2023-05-23T21:17:39.044Z,26.00
2023-05-23T21:20:08.223Z,26.00
2023-05-23T21:22:37.423Z,26.00
2023-05-23T21:25:06.310Z,26.00
2023-05-23T21:27:35.305Z,26.00
2023-05-23T21:30:04.512Z,25.90
2023-05-23T21:32:33.512Z,25.80
2023-05-23T21:35:02.603Z,25.90
2023-05-23T21:37:31.791Z,26.30
2023-05-23T21:40:00.690Z,26.90
2023-05-23T21:42:29.578Z,27.60
2023-05-23T21:44:58.571Z,28.20
2023-05-23T21:47:27.782Z,28.80
2023-05-23T21:49:56.766Z,29.20
2023-05-23T21:52:25.963Z,29.60
2023-05-23T21:54:55.151Z,29.90
2023-05-23T21:57:24.154Z,30.20
2023-05-23T21:59:53.156Z,30.40
2023-05-23T22:02:22.467Z,30.60
2023-05-23T22:04:51.433Z,30.70
2023-05-23T22:07:20.325Z,30.80
2023-05-23T22:09:49.324Z,30.90
2023-05-23T22:12:19.905Z,31.00
2023-05-23T22:14:48.847Z,31.10
2023-05-23T22:17:17.944Z,31.30
2023-05-23T22:19:46.910Z,31.30
2023-05-23T22:22:15.922Z,31.40
2023-05-23T22:24:45.027Z,31.50
2023-05-23T22:27:14.118Z,31.60
2023-05-23T22:29:43.004Z,31.70
2023-05-23T22:32:11.896Z,31.70
2023-05-23T22:34:40.995Z,31.90
2023-05-23T22:37:10.094Z,31.90
2023-05-23T22:39:39.058Z,31.90
2023-05-23T22:42:08.193Z,32.00
2023-05-23T22:44:37.395Z,32.00
2023-05-23T22:47:06.584Z,32.10
2023-05-23T22:49:35.571Z,32.10
2023-05-23T22:52:04.566Z,32.10
2023-05-23T22:54:33.559Z,32.10
2023-05-23T22:57:02.535Z,32.10
2023-05-23T22:59:33.978Z,32.20
2023-05-23T23:02:03.135Z,32.20
2023-05-23T23:04:32.090Z,32.20
2023-05-23T23:07:01.104Z,32.30
2023-05-23T23:09:30.186Z,32.40
2023-05-23T23:11:59.063Z,32.40
2023-05-23T23:14:28.277Z,32.40
2023-05-23T23:16:57.434Z,32.50
2023-05-23T23:19:26.488Z,32.60
2023-05-23T23:21:55.453Z,32.60
2023-05-23T23:24:24.556Z,32.70
2023-05-23T23:26:56.737Z,32.70
2023-05-23T23:29:25.623Z,32.70
2023-05-23T23:31:55.014Z,32.80
2023-05-23T23:34:24.006Z,32.80
2023-05-23T23:36:52.996Z,32.80
2023-05-23T23:39:22.204Z,32.80
2023-05-23T23:41:51.497Z,32.80
2023-05-23T23:44:20.799Z,32.90
2023-05-23T23:46:49.890Z,32.90
2023-05-23T23:49:19.072Z,32.90
2023-05-23T23:51:48.286Z,32.90
2023-05-23T23:54:17.386Z,32.90
2023-05-23T23:56:46.463Z,32.90
2023-05-23T23:59:15.671Z,33.00
